VMMC/MFM METAR and TAF weather

Enter ICAO airport designator
Station Type Date Time Source
VMMC METAR 2021/09/16 22:00 UTC NOAA

VMMC 162200Z 33003KT CAVOK 27/24 Q1008 NOSIG


Station Type Date Time Source
VMMC Decoded METAR 2021/09/16 22:00 UTC NOAA

Taipa, Macau (VMMC) 22-10N 113-34E
Sep 16, 2021 - 06:00 PM EDT / 2021.09.16 2200 UTC
Wind: from the NNW (330 degrees) at 3 MPH (3 KT):0
Visibility: greater than 7 mile(s):0
Temperature: 80 F (27 C)
Dew Point: 75 F (24 C)
Relative Humidity: 83%
Pressure (altimeter): 29.77 in. Hg (1008 hPa)
ob: VMMC 162200Z 33003KT CAVOK 27/24 Q1008 NOSIG
cycle: 22

Station Type Date Time Source
VMMC TAF 2021/09/16 18:21 UTC NOAA

TAF VMMC 161700Z 1618/1724 VRB03KT 9999 FEW025 PROB30
TEMPO 1706/1710 VRB15G25KT 3500 TSRA FEW010CB SCT020

Example: see airport list